createdAt,value
2023-03-15T00:01:16.502Z,-0.77
2023-03-15T00:05:23.187Z,-0.93
2023-03-15T00:09:34.661Z,-0.96
2023-03-15T00:13:38.451Z,-0.88
2023-03-15T00:17:45.164Z,-0.75
2023-03-15T00:21:48.824Z,-0.49
2023-03-15T00:25:55.503Z,-1.09
2023-03-15T00:29:59.165Z,-0.69
2023-03-15T00:34:02.591Z,-0.81
2023-03-15T00:38:06.129Z,-0.98
2023-03-15T00:42:14.039Z,-1.22
2023-03-15T00:46:17.887Z,-0.87
2023-03-15T00:50:21.428Z,-1.31
2023-03-15T00:54:25.086Z,-0.76
2023-03-15T00:58:30.171Z,-1.36
2023-03-15T01:02:32.952Z,-0.95
2023-03-15T01:06:36.004Z,-1.17
2023-03-15T01:10:39.406Z,-1.43
2023-03-15T01:14:44.622Z,-1.20
2023-03-15T01:18:47.686Z,-1.15
2023-03-15T01:22:51.500Z,-1.08
2023-03-15T01:26:54.923Z,-1.02
2023-03-15T01:31:00.239Z,-1.40
2023-03-15T01:35:03.164Z,-1.69
2023-03-15T01:39:06.574Z,-1.72
2023-03-15T01:43:19.502Z,-1.87
2023-03-15T01:47:26.265Z,-1.66
2023-03-15T01:51:33.968Z,-1.71
2023-03-15T01:55:37.115Z,-1.68
2023-03-15T01:59:42.557Z,-1.30
2023-03-15T02:03:48.396Z,-1.53
2023-03-15T02:07:54.736Z,-1.55
2023-03-15T02:11:59.038Z,-1.69
2023-03-15T02:16:02.555Z,-1.41
2023-03-15T02:20:15.678Z,-1.42
2023-03-15T02:24:28.116Z,-1.64
2023-03-15T02:28:32.393Z,-1.74
2023-03-15T02:32:35.763Z,-1.64
2023-03-15T02:36:38.808Z,-1.40
2023-03-15T02:40:42.581Z,-1.81
2023-03-15T02:44:47.553Z,-1.58
2023-03-15T02:48:54.232Z,-1.64
2023-03-15T02:52:57.511Z,-1.52
2023-03-15T02:57:01.028Z,-1.51
2023-03-15T03:01:05.686Z,-1.65
2023-03-15T03:05:09.160Z,-1.64
2023-03-15T03:09:12.581Z,-1.72
2023-03-15T03:13:16.336Z,-1.66
2023-03-15T03:17:21.018Z,-1.56
2023-03-15T03:21:24.147Z,-1.82
2023-03-15T03:25:27.353Z,-1.55
2023-03-15T03:29:30.957Z,-1.86
2023-03-15T03:33:35.376Z,-1.53
2023-03-15T03:37:39.240Z,-1.54
2023-03-15T03:41:43.088Z,-1.32
2023-03-15T03:45:46.468Z,-1.28
2023-03-15T03:49:50.684Z,-1.23
2023-03-15T03:53:54.426Z,-1.16
2023-03-15T03:57:57.922Z,-0.91
2023-03-15T04:02:03.581Z,-0.74
2023-03-15T04:06:10.972Z,-0.71
2023-03-15T04:10:14.928Z,-0.67
2023-03-15T04:14:18.488Z,-0.63
2023-03-15T04:18:22.553Z,-0.56
2023-03-15T04:22:27.797Z,-0.53
2023-03-15T04:26:35.129Z,-0.46
2023-03-15T04:30:39.907Z,-0.47
2023-03-15T04:34:44.282Z,-0.47
2023-03-15T04:39:03.533Z,-0.33
2023-03-15T04:43:08.019Z,-0.24
2023-03-15T04:47:14.754Z,-0.22
2023-03-15T04:51:21.341Z,-0.29
2023-03-15T04:55:36.451Z,-0.18
2023-03-15T04:59:41.337Z,-0.18
2023-03-15T05:03:45.836Z,-0.13
2023-03-15T05:07:50.139Z,-0.05
2023-03-15T05:12:03.158Z,-0.19
2023-03-15T05:16:10.030Z,-0.14
2023-03-15T05:20:18.370Z,-0.08
2023-03-15T05:24:22.394Z,-0.07
2023-03-15T05:28:33.220Z,0.04
2023-03-15T05:32:39.908Z,0.05
2023-03-15T05:36:43.659Z,-0.02
2023-03-15T05:40:48.317Z,-0.08
2023-03-15T05:44:53.645Z,-0.02
2023-03-15T05:48:56.375Z,0.00
2023-03-15T05:52:59.986Z,-0.04
2023-03-15T05:57:03.231Z,0.05
2023-03-15T06:01:10.084Z,-0.04
2023-03-15T06:05:27.020Z,0.07
2023-03-15T06:09:31.921Z,-0.01
2023-03-15T06:13:36.090Z,0.09
2023-03-15T06:17:47.054Z,0.11
2023-03-15T06:21:54.230Z,0.16
2023-03-15T06:26:02.882Z,0.10
2023-03-15T06:30:13.238Z,0.15
2023-03-15T06:34:29.941Z,0.12
2023-03-15T06:38:32.975Z,0.10
2023-03-15T06:42:51.703Z,0.23
2023-03-15T06:46:58.861Z,0.22
2023-03-15T06:51:20.493Z,0.29
2023-03-15T06:55:32.103Z,0.22
2023-03-15T06:59:36.006Z,0.22
2023-03-15T07:03:38.859Z,0.37
2023-03-15T07:07:43.137Z,0.54
2023-03-15T07:11:46.958Z,0.43
2023-03-15T07:15:53.655Z,0.48
2023-03-15T07:19:57.237Z,0.44
2023-03-15T07:24:07.157Z,0.44
2023-03-15T07:28:09.871Z,0.62
2023-03-15T07:32:12.645Z,0.82
2023-03-15T07:36:15.520Z,0.82
2023-03-15T07:40:21.234Z,0.90
2023-03-15T07:44:25.842Z,0.76
2023-03-15T07:48:29.386Z,0.81
2023-03-15T07:52:32.190Z,0.75
2023-03-15T07:56:36.384Z,0.81
2023-03-15T08:00:40.037Z,0.84
2023-03-15T08:04:43.337Z,0.90
2023-03-15T08:08:46.704Z,1.02
2023-03-15T08:12:52.814Z,1.21
2023-03-15T08:16:58.277Z,1.30
2023-03-15T08:21:01.519Z,1.39
2023-03-15T08:25:04.333Z,1.57
2023-03-15T08:29:11.464Z,1.72
2023-03-15T08:33:14.218Z,1.91
2023-03-15T08:37:16.951Z,1.67
2023-03-15T08:41:20.944Z,2.01
2023-03-15T08:45:27.205Z,2.15
2023-03-15T08:49:30.089Z,2.08
2023-03-15T08:53:33.351Z,2.02
2023-03-15T08:57:41.023Z,1.88
2023-03-15T09:01:47.407Z,2.18
2023-03-15T09:05:50.564Z,2.54
2023-03-15T09:09:55.339Z,2.60
2023-03-15T09:13:57.976Z,2.91
2023-03-15T09:18:05.035Z,2.78
2023-03-15T09:22:16.770Z,2.54
2023-03-15T09:26:26.578Z,2.54
2023-03-15T09:30:32.832Z,2.45
2023-03-15T09:34:42.769Z,2.58
2023-03-15T09:38:48.257Z,2.49
2023-03-15T09:43:05.849Z,2.34
2023-03-15T09:47:22.510Z,2.82
2023-03-15T09:51:32.290Z,2.73
2023-03-15T09:55:35.090Z,3.00
2023-03-15T09:59:43.951Z,3.13
2023-03-15T10:03:49.725Z,3.23
2023-03-15T10:07:56.588Z,3.26
2023-03-15T10:12:04.972Z,3.76
2023-03-15T10:16:15.813Z,4.02
2023-03-15T10:20:19.954Z,4.58
2023-03-15T10:24:32.163Z,4.95
2023-03-15T10:28:37.616Z,4.87
2023-03-15T10:32:43.532Z,4.96
2023-03-15T10:36:55.119Z,4.94
2023-03-15T10:41:00.295Z,4.67
2023-03-15T10:45:21.795Z,4.84
2023-03-15T10:49:35.454Z,4.56
2023-03-15T10:54:02.204Z,4.52
2023-03-15T10:58:25.897Z,4.88
2023-03-15T11:02:29.595Z,4.91
2023-03-15T11:06:44.973Z,5.90
2023-03-15T11:10:50.256Z,5.86
2023-03-15T11:15:00.526Z,5.67
2023-03-15T11:19:13.070Z,4.89
2023-03-15T11:23:23.019Z,5.55
2023-03-15T11:27:30.338Z,5.22
2023-03-15T11:31:36.637Z,5.07
2023-03-15T11:35:48.444Z,5.27
2023-03-15T11:40:10.366Z,4.82
2023-03-15T11:44:29.171Z,4.84
2023-03-15T11:48:42.317Z,5.00
2023-03-15T11:52:53.957Z,5.07
2023-03-15T11:57:09.685Z,5.78
2023-03-15T12:01:28.386Z,5.80
2023-03-15T12:05:57.865Z,5.68
2023-03-15T12:10:46.709Z,5.32
2023-03-15T12:14:58.448Z,6.07
2023-03-15T12:19:16.733Z,5.44
2023-03-15T12:23:25.562Z,5.69
2023-03-15T12:27:35.252Z,5.52
2023-03-15T12:31:48.724Z,5.33
2023-03-15T12:35:57.088Z,7.05
2023-03-15T12:40:39.468Z,5.70
2023-03-15T12:44:50.245Z,5.37
2023-03-15T12:49:08.769Z,6.05
2023-03-15T12:53:37.559Z,6.58
2023-03-15T12:57:53.429Z,6.82
2023-03-15T13:01:57.438Z,7.58
2023-03-15T13:06:17.619Z,6.76
2023-03-15T13:10:51.117Z,7.86
2023-03-15T13:14:59.994Z,7.88
2023-03-15T13:19:19.711Z,7.23
2023-03-15T13:23:26.276Z,7.22
2023-03-15T13:27:41.081Z,7.53
2023-03-15T13:31:51.619Z,7.69
2023-03-15T13:36:01.351Z,7.94
2023-03-15T13:40:12.549Z,8.63
2023-03-15T13:44:19.862Z,8.32
2023-03-15T13:48:28.256Z,7.14
2023-03-15T13:52:35.920Z,6.89
2023-03-15T13:56:49.805Z,7.50
2023-03-15T14:01:01.288Z,7.32
2023-03-15T14:05:09.263Z,7.61
2023-03-15T14:09:19.532Z,6.81
2023-03-15T14:13:29.648Z,6.54
2023-03-15T14:17:33.632Z,6.08
2023-03-15T14:21:38.885Z,5.75
2023-03-15T14:25:49.981Z,5.51
2023-03-15T14:29:55.099Z,5.37
2023-03-15T14:34:01.226Z,5.41
2023-03-15T14:38:10.415Z,5.47
2023-03-15T14:42:14.725Z,5.42
2023-03-15T14:46:19.073Z,5.28
2023-03-15T14:50:27.015Z,5.63
2023-03-15T14:54:32.683Z,5.70
2023-03-15T14:58:38.978Z,5.70
2023-03-15T15:02:45.021Z,5.83
2023-03-15T15:06:55.507Z,5.68
2023-03-15T15:11:01.184Z,5.67
2023-03-15T15:15:14.035Z,5.78
2023-03-15T15:19:19.179Z,6.10
2023-03-15T15:23:25.063Z,6.48
2023-03-15T15:27:33.209Z,6.64
2023-03-15T15:31:37.745Z,6.55
2023-03-15T15:35:43.992Z,6.64
2023-03-15T15:39:47.908Z,6.11
2023-03-15T15:43:52.495Z,6.10
2023-03-15T15:47:56.398Z,6.46
2023-03-15T15:51:59.868Z,6.53
2023-03-15T15:56:03.833Z,6.34
2023-03-15T16:00:15.300Z,5.88
2023-03-15T16:04:22.978Z,6.01
2023-03-15T16:08:31.060Z,5.84
2023-03-15T16:12:35.237Z,5.83
2023-03-15T16:16:42.006Z,5.91
2023-03-15T16:20:48.280Z,5.83
2023-03-15T16:24:55.821Z,5.85
2023-03-15T16:28:59.316Z,5.96
2023-03-15T16:33:04.244Z,5.92
2023-03-15T16:37:11.365Z,5.79
2023-03-15T16:41:19.005Z,5.69
2023-03-15T16:45:26.290Z,5.55
2023-03-15T16:49:32.327Z,5.52
2023-03-15T16:53:37.657Z,5.44
2023-03-15T16:57:42.385Z,5.41
2023-03-15T17:01:52.484Z,5.20
2023-03-15T17:05:58.883Z,4.90
2023-03-15T17:10:17.076Z,4.74
2023-03-15T17:14:31.250Z,4.61
2023-03-15T17:18:36.768Z,4.46
2023-03-15T17:22:43.644Z,3.93
2023-03-15T17:26:48.443Z,4.12
2023-03-15T17:31:08.899Z,3.93
2023-03-15T17:35:20.073Z,4.20
2023-03-15T17:39:25.071Z,3.85
2023-03-15T17:43:28.903Z,3.28
2023-03-15T17:47:32.527Z,3.37
2023-03-15T17:51:38.291Z,3.38
2023-03-15T17:55:42.926Z,3.48
2023-03-15T17:59:46.042Z,3.39
2023-03-15T18:03:49.176Z,2.96
2023-03-15T18:07:58.936Z,2.83
2023-03-15T18:12:04.687Z,2.83
2023-03-15T18:16:08.574Z,3.10
2023-03-15T18:20:16.106Z,2.89
2023-03-15T18:24:19.885Z,2.55
2023-03-15T18:28:24.806Z,3.02
2023-03-15T18:32:28.415Z,2.75
2023-03-15T18:36:31.702Z,2.86
2023-03-15T18:40:39.133Z,2.82
2023-03-15T18:44:44.318Z,2.37
2023-03-15T18:48:47.543Z,1.91
2023-03-15T18:52:51.410Z,1.84
2023-03-15T18:56:54.316Z,2.41
2023-03-15T19:00:59.373Z,2.28
2023-03-15T19:05:02.238Z,1.89
2023-03-15T19:09:05.772Z,2.33
2023-03-15T19:13:09.069Z,2.09
2023-03-15T19:17:13.811Z,1.70
2023-03-15T19:21:21.297Z,1.57
2023-03-15T19:25:24.969Z,1.92
2023-03-15T19:29:27.822Z,2.13
2023-03-15T19:33:32.616Z,1.97
2023-03-15T19:37:39.034Z,1.58
2023-03-15T19:41:43.010Z,1.84
2023-03-15T19:45:49.835Z,1.76
2023-03-15T19:49:55.145Z,1.84
2023-03-15T19:53:59.300Z,1.45
2023-03-15T19:58:03.377Z,1.83
2023-03-15T20:02:06.171Z,1.81
2023-03-15T20:06:14.659Z,1.36
2023-03-15T20:10:19.453Z,1.83
2023-03-15T20:14:23.358Z,1.84
2023-03-15T20:18:28.475Z,1.34
2023-03-15T20:22:33.188Z,1.20
2023-03-15T20:26:40.335Z,0.83
2023-03-15T20:30:44.737Z,0.85
2023-03-15T20:34:48.117Z,1.35
2023-03-15T20:38:53.715Z,1.19
2023-03-15T20:42:57.136Z,1.30
2023-03-15T20:47:01.184Z,1.53
2023-03-15T20:51:05.125Z,0.76
2023-03-15T20:55:11.240Z,1.48
2023-03-15T20:59:15.029Z,1.45
2023-03-15T21:03:19.812Z,1.42
2023-03-15T21:07:22.884Z,1.34
2023-03-15T21:11:27.512Z,1.35
2023-03-15T21:15:31.401Z,1.05
2023-03-15T21:19:35.649Z,1.05
2023-03-15T21:23:39.424Z,0.57
2023-03-15T21:27:44.203Z,0.74
2023-03-15T21:31:53.450Z,0.82
2023-03-15T21:35:59.241Z,0.74
2023-03-15T21:40:03.009Z,0.49
2023-03-15T21:44:08.287Z,0.49
2023-03-15T21:48:11.683Z,0.43
2023-03-15T21:52:16.416Z,-0.19
2023-03-15T21:56:19.967Z,0.19
2023-03-15T22:00:26.185Z,0.33
2023-03-15T22:04:34.281Z,0.23
2023-03-15T22:08:40.865Z,0.10
2023-03-15T22:12:44.242Z,0.27
2023-03-15T22:16:49.118Z,-0.36
2023-03-15T22:20:55.786Z,0.23
2023-03-15T22:24:58.895Z,0.09
2023-03-15T22:29:02.181Z,-0.65
2023-03-15T22:33:07.341Z,-0.44
2023-03-15T22:37:13.336Z,-0.20
2023-03-15T22:41:16.224Z,-0.47
2023-03-15T22:45:19.773Z,-0.55
2023-03-15T22:49:25.454Z,-0.95
2023-03-15T22:53:32.689Z,-0.74
2023-03-15T22:57:35.991Z,-0.57
2023-03-15T23:01:39.188Z,-0.69
2023-03-15T23:05:46.182Z,-0.36
2023-03-15T23:09:49.593Z,-0.78
2023-03-15T23:13:55.942Z,-0.53
2023-03-15T23:17:58.956Z,-0.40
2023-03-15T23:22:05.929Z,-1.05
2023-03-15T23:26:09.736Z,-1.12
2023-03-15T23:30:14.143Z,-0.69
2023-03-15T23:34:18.411Z,-0.67
2023-03-15T23:38:23.822Z,-0.98
2023-03-15T23:42:28.239Z,-0.60
2023-03-15T23:46:36.327Z,-0.98
2023-03-15T23:50:40.316Z,-0.97
2023-03-15T23:54:45.453Z,-0.96
2023-03-15T23:58:48.706Z,-1.23
